TimePST,TemperatureF,Dew PointF,Humidity,Sea Level PressureIn,VisibilityMPH,Wind Direction,Wind SpeedMPH,Gust SpeedMPH,PrecipitationIn,Events,Conditions,WindDirDegrees,DateUTC
12:00 AM,44.8,38.1,77,29.94,-9999.0,South,18.4,-,N/A,,Unknown,170,2013-02-28 08:00:00
3:00 AM,45.0,42.8,92,29.86,-9999.0,SSE,34.5,-,N/A,,Unknown,160,2013-02-28 11:00:00
4:00 AM,44,42,90,29.80,,SSE,42.6,,,,,160,2013-02-28 12:00:00
4:00 AM,44.1,42.1,93,29.80,-9999.0,SSE,42.6,-,N/A,,Unknown,160,2013-02-28 12:00:00
5:00 AM,44.1,42.3,93,29.74,-9999.0,SSE,43.7,-,N/A,,Unknown,150,2013-02-28 13:00:00
6:00 AM,42.6,39.7,90,29.71,-9999.0,SSE,41.4,-,N/A,,Unknown,160,2013-02-28 14:00:00
7:00 AM,41.9,39.6,91,29.65,-9999.0,SSE,44.9,-,N/A,,Unknown,160,2013-02-28 15:00:00
8:00 AM,42.1,39.9,92,29.58,-9999.0,SSE,48.3,-,N/A,,Unknown,160,2013-02-28 16:00:00
9:00 AM,42.4,41.2,95,29.55,-9999.0,SSE,50.6,-,N/A,,Unknown,160,2013-02-28 17:00:00
10:00 AM,44,43,95,,,SSE,41.4,,,,,160,2013-02-28 18:00:00
10:00 AM,44.1,43.0,96,29.53,-9999.0,SSE,41.4,-,N/A,,Unknown,160,2013-02-28 18:00:00
11:00 AM,45.5,43.9,94,29.55,-9999.0,South,23.0,-,N/A,,Unknown,180,2013-02-28 19:00:00
12:00 PM,44.6,41.9,90,29.63,-9999.0,WNW,8.1,-,N/A,,Unknown,290,2013-02-28 20:00:00
1:00 PM,44.8,40.5,85,29.68,-9999.0,WNW,6.9,-,N/A,,Unknown,290,2013-02-28 21:00:00
2:00 PM,46.0,39.9,79,29.71,-9999.0,WNW,10.4,-,N/A,,Unknown,290,2013-02-28 22:00:00
3:00 PM,45.5,36.1,70,29.76,-9999.0,WNW,15.0,-,N/A,,Unknown,290,2013-02-28 23:00:00
4:00 PM,45,35,59,29.81,,WNW,8.1,,,,,300,2013-03-01 00:00:00
4:00 PM,45.3,35.4,68,29.81,-9999.0,WNW,8.1,-,N/A,,Unknown,300,2013-03-01 00:00:00
5:00 PM,44.8,36.3,72,29.86,-9999.0,West,6.9,-,N/A,,Unknown,260,2013-03-01 01:00:00
6:00 PM,44.1,35.4,72,29.88,-9999.0,SW,15.0,-,N/A,,Unknown,230,2013-03-01 02:00:00
7:00 PM,43.2,35.4,74,29.91,-9999.0,WNW,4.6,-,N/A,,Unknown,300,2013-03-01 03:00:00
8:00 PM,41.5,35.6,79,29.93,-9999.0,West,4.6,-,N/A,,Unknown,270,2013-03-01 04:00:00
9:00 PM,41.2,35.2,79,29.96,-9999.0,West,2.3,-,N/A,,Unknown,280,2013-03-01 05:00:00
10:00 PM,41,36,75,29.98,,WSW,8.1,,,,,240,2013-03-01 06:00:00
11:00 PM,42.1,35.4,77,30.00,-9999.0,SSW,8.1,-,N/A,,Unknown,210,2013-03-01 07:00:00